sensor_id;sensor_type;location;lat;lon;timestamp;temperature;humidity
51567;DHT22;37657;53.182;5.638;2022-09-09T00:01:08;14.50;99.90
51567;DHT22;37657;53.182;5.638;2022-09-09T00:03:44;14.60;99.90
51567;DHT22;37657;53.182;5.638;2022-09-09T00:11:35;14.60;99.90
51567;DHT22;37657;53.182;5.638;2022-09-09T00:14:08;14.60;99.90
51567;DHT22;37657;53.182;5.638;2022-09-09T00:16:41;14.60;99.90
51567;DHT22;37657;53.182;5.638;2022-09-09T00:19:33;14.70;99.90
51567;DHT22;37657;53.182;5.638;2022-09-09T00:22:14;14.70;99.90
51567;DHT22;37657;53.182;5.638;2022-09-09T00:27:16;14.80;99.90
51567;DHT22;37657;53.182;5.638;2022-09-09T00:29:57;14.60;99.90
51567;DHT22;37657;53.182;5.638;2022-09-09T00:32:28;14.60;99.90
51567;DHT22;37657;53.182;5.638;2022-09-09T00:34:59;14.60;99.90
51567;DHT22;37657;53.182;5.638;2022-09-09T00:37:28;14.70;99.90
51567;DHT22;37657;53.182;5.638;2022-09-09T00:39:59;14.70;99.90
51567;DHT22;37657;53.182;5.638;2022-09-09T00:42:44;14.70;99.90
51567;DHT22;37657;53.182;5.638;2022-09-09T00:47:49;14.70;99.90
51567;DHT22;37657;53.182;5.638;2022-09-09T00:50:36;14.70;99.90
51567;DHT22;37657;53.182;5.638;2022-09-09T00:56:14;14.70;99.90
51567;DHT22;37657;53.182;5.638;2022-09-09T00:58:42;14.70;99.90
51567;DHT22;37657;53.182;5.638;2022-09-09T01:01:12;14.70;99.90
51567;DHT22;37657;53.182;5.638;2022-09-09T01:04:20;14.60;99.90
51567;DHT22;37657;53.182;5.638;2022-09-09T01:06:56;14.60;99.90
51567;DHT22;37657;53.182;5.638;2022-09-09T01:14:47;14.70;99.90
51567;DHT22;37657;53.182;5.638;2022-09-09T01:17:23;14.60;99.90
51567;DHT22;37657;53.182;5.638;2022-09-09T01:20:04;14.80;99.90
51567;DHT22;37657;53.182;5.638;2022-09-09T01:22:52;14.70;99.90
51567;DHT22;37657;53.182;5.638;2022-09-09T01:28:27;14.80;99.90
51567;DHT22;37657;53.182;5.638;2022-09-09T01:30:55;14.80;99.90
51567;DHT22;37657;53.182;5.638;2022-09-09T01:33:21;14.90;99.90
51567;DHT22;37657;53.182;5.638;2022-09-09T01:35:54;14.90;99.90
51567;DHT22;37657;53.182;5.638;2022-09-09T01:38:21;14.80;99.90
51567;DHT22;37657;53.182;5.638;2022-09-09T01:40:47;14.90;99.90
51567;DHT22;37657;53.182;5.638;2022-09-09T01:43:13;14.80;99.90
51567;DHT22;37657;53.182;5.638;2022-09-09T01:45:39;14.70;99.90
51567;DHT22;37657;53.182;5.638;2022-09-09T01:48:06;14.80;99.90
51567;DHT22;37657;53.182;5.638;2022-09-09T01:50:32;14.70;99.90
51567;DHT22;37657;53.182;5.638;2022-09-09T01:52:58;14.80;99.90
51567;DHT22;37657;53.182;5.638;2022-09-09T01:55:37;14.70;99.90
51567;DHT22;37657;53.182;5.638;2022-09-09T02:03:35;14.60;99.90
51567;DHT22;37657;53.182;5.638;2022-09-09T02:06:24;14.50;99.90
51567;DHT22;37657;53.182;5.638;2022-09-09T02:08:55;14.40;99.90
51567;DHT22;37657;53.182;5.638;2022-09-09T02:11:23;14.40;99.90
51567;DHT22;37657;53.182;5.638;2022-09-09T02:13:54;14.50;99.90
51567;DHT22;37657;53.182;5.638;2022-09-09T02:16:26;14.50;99.90
51567;DHT22;37657;53.182;5.638;2022-09-09T02:18:58;14.30;99.90
51567;DHT22;37657;53.182;5.638;2022-09-09T02:21:28;14.30;99.90
51567;DHT22;37657;53.182;5.638;2022-09-09T02:23:58;14.30;99.90
51567;DHT22;37657;53.182;5.638;2022-09-09T02:26:25;14.20;99.90
51567;DHT22;37657;53.182;5.638;2022-09-09T02:28:54;14.30;99.90
51567;DHT22;37657;53.182;5.638;2022-09-09T02:31:22;14.20;99.90
51567;DHT22;37657;53.182;5.638;2022-09-09T02:33:56;14.20;99.90
51567;DHT22;37657;53.182;5.638;2022-09-09T02:36:24;14.10;99.90
51567;DHT22;37657;53.182;5.638;2022-09-09T02:38:51;14.10;99.90
51567;DHT22;37657;53.182;5.638;2022-09-09T02:41:33;14.20;99.90
51567;DHT22;37657;53.182;5.638;2022-09-09T02:43:59;14.10;99.90
51567;DHT22;37657;53.182;5.638;2022-09-09T02:52:08;14.00;99.90
51567;DHT22;37657;53.182;5.638;2022-09-09T02:54:38;14.20;99.90
51567;DHT22;37657;53.182;5.638;2022-09-09T02:57:12;14.10;99.90
51567;DHT22;37657;53.182;5.638;2022-09-09T02:59:40;14.20;99.90
51567;DHT22;37657;53.182;5.638;2022-09-09T03:02:07;14.20;99.90
51567;DHT22;37657;53.182;5.638;2022-09-09T03:04:32;14.30;99.90
51567;DHT22;37657;53.182;5.638;2022-09-09T03:06:59;14.20;99.90
51567;DHT22;37657;53.182;5.638;2022-09-09T03:09:25;14.10;99.90
51567;DHT22;37657;53.182;5.638;2022-09-09T03:11:54;14.30;99.90
51567;DHT22;37657;53.182;5.638;2022-09-09T03:14:20;14.30;99.90
51567;DHT22;37657;53.182;5.638;2022-09-09T03:16:50;14.30;99.90
51567;DHT22;37657;53.182;5.638;2022-09-09T03:19:15;14.20;99.90
51567;DHT22;37657;53.182;5.638;2022-09-09T03:21:41;14.30;99.90
51567;DHT22;37657;53.182;5.638;2022-09-09T03:24:07;14.30;99.90
51567;DHT22;37657;53.182;5.638;2022-09-09T03:26:33;14.50;99.90
51567;DHT22;37657;53.182;5.638;2022-09-09T03:28:58;14.30;99.90
51567;DHT22;37657;53.182;5.638;2022-09-09T03:31:26;14.40;99.90
51567;DHT22;37657;53.182;5.638;2022-09-09T03:33:56;14.60;99.90
51567;DHT22;37657;53.182;5.638;2022-09-09T03:36:23;14.60;99.90
51567;DHT22;37657;53.182;5.638;2022-09-09T03:38:49;14.50;99.90
51567;DHT22;37657;53.182;5.638;2022-09-09T03:41:16;14.60;99.90
51567;DHT22;37657;53.182;5.638;2022-09-09T03:43:41;14.60;99.90
51567;DHT22;37657;53.182;5.638;2022-09-09T03:46:07;14.70;99.90
51567;DHT22;37657;53.182;5.638;2022-09-09T03:48:32;14.70;99.90
51567;DHT22;37657;53.182;5.638;2022-09-09T03:50:58;14.80;99.90
51567;DHT22;37657;53.182;5.638;2022-09-09T03:53:26;14.70;99.90
51567;DHT22;37657;53.182;5.638;2022-09-09T03:55:54;14.80;99.90
51567;DHT22;37657;53.182;5.638;2022-09-09T03:58:25;14.80;99.90
51567;DHT22;37657;53.182;5.638;2022-09-09T04:01:04;14.80;99.90
51567;DHT22;37657;53.182;5.638;2022-09-09T04:03:30;14.90;99.90
51567;DHT22;37657;53.182;5.638;2022-09-09T04:05:58;14.80;99.90
51567;DHT22;37657;53.182;5.638;2022-09-09T04:08:24;14.80;99.90
51567;DHT22;37657;53.182;5.638;2022-09-09T04:10:51;14.70;99.90
51567;DHT22;37657;53.182;5.638;2022-09-09T04:13:17;14.80;99.90
51567;DHT22;37657;53.182;5.638;2022-09-09T04:15:44;14.80;99.90
51567;DHT22;37657;53.182;5.638;2022-09-09T04:18:15;14.80;99.90
51567;DHT22;37657;53.182;5.638;2022-09-09T04:20:40;14.60;99.90
51567;DHT22;37657;53.182;5.638;2022-09-09T04:23:06;14.60;99.90
51567;DHT22;37657;53.182;5.638;2022-09-09T04:25:31;14.60;99.90
51567;DHT22;37657;53.182;5.638;2022-09-09T04:27:59;14.60;99.90
51567;DHT22;37657;53.182;5.638;2022-09-09T04:30:25;14.70;99.90
51567;DHT22;37657;53.182;5.638;2022-09-09T04:32:51;14.70;99.90
51567;DHT22;37657;53.182;5.638;2022-09-09T04:35:17;14.70;99.90
51567;DHT22;37657;53.182;5.638;2022-09-09T04:37:42;14.60;99.90
51567;DHT22;37657;53.182;5.638;2022-09-09T04:40:08;14.70;99.90
51567;DHT22;37657;53.182;5.638;2022-09-09T04:42:39;14.60;99.90
51567;DHT22;37657;53.182;5.638;2022-09-09T04:45:05;14.80;99.90
51567;DHT22;37657;53.182;5.638;2022-09-09T04:47:32;14.70;99.90
51567;DHT22;37657;53.182;5.638;2022-09-09T04:49:58;14.60;99.90
51567;DHT22;37657;53.182;5.638;2022-09-09T04:52:23;14.80;99.90
51567;DHT22;37657;53.182;5.638;2022-09-09T04:54:49;14.60;99.90
51567;DHT22;37657;53.182;5.638;2022-09-09T04:57:14;14.70;99.90
51567;DHT22;37657;53.182;5.638;2022-09-09T04:59:40;14.60;99.90
51567;DHT22;37657;53.182;5.638;2022-09-09T05:02:06;14.60;99.90
51567;DHT22;37657;53.182;5.638;2022-09-09T05:04:31;14.60;99.90
51567;DHT22;37657;53.182;5.638;2022-09-09T05:06:58;14.70;99.90
51567;DHT22;37657;53.182;5.638;2022-09-09T05:09:24;14.70;99.90
51567;DHT22;37657;53.182;5.638;2022-09-09T05:11:49;14.70;99.90
51567;DHT22;37657;53.182;5.638;2022-09-09T05:14:15;14.70;99.90
51567;DHT22;37657;53.182;5.638;2022-09-09T05:16:41;14.60;99.90
51567;DHT22;37657;53.182;5.638;2022-09-09T05:19:07;14.80;99.90
51567;DHT22;37657;53.182;5.638;2022-09-09T05:21:34;14.80;99.90
51567;DHT22;37657;53.182;5.638;2022-09-09T05:24:00;15.00;99.90
51567;DHT22;37657;53.182;5.638;2022-09-09T05:26:28;15.00;99.90
51567;DHT22;37657;53.182;5.638;2022-09-09T05:28:55;15.00;99.90
51567;DHT22;37657;53.182;5.638;2022-09-09T05:31:21;15.10;99.90
51567;DHT22;37657;53.182;5.638;2022-09-09T05:33:47;15.20;99.90
51567;DHT22;37657;53.182;5.638;2022-09-09T05:36:17;15.20;99.90
51567;DHT22;37657;53.182;5.638;2022-09-09T05:38:43;15.20;99.90
51567;DHT22;37657;53.182;5.638;2022-09-09T05:41:10;15.40;99.90
51567;DHT22;37657;53.182;5.638;2022-09-09T05:43:36;15.40;99.90
51567;DHT22;37657;53.182;5.638;2022-09-09T05:48:38;15.40;99.90
51567;DHT22;37657;53.182;5.638;2022-09-09T05:51:05;15.60;99.90
51567;DHT22;37657;53.182;5.638;2022-09-09T05:53:34;15.60;99.90
51567;DHT22;37657;53.182;5.638;2022-09-09T05:58:33;15.60;99.90
51567;DHT22;37657;53.182;5.638;2022-09-09T06:01:09;15.70;99.90
51567;DHT22;37657;53.182;5.638;2022-09-09T06:03:40;15.80;99.90
51567;DHT22;37657;53.182;5.638;2022-09-09T06:06:11;15.80;99.90
51567;DHT22;37657;53.182;5.638;2022-09-09T06:08:39;15.90;99.90
51567;DHT22;37657;53.182;5.638;2022-09-09T06:11:10;15.80;99.90
51567;DHT22;37657;53.182;5.638;2022-09-09T06:13:37;15.90;99.90
51567;DHT22;37657;53.182;5.638;2022-09-09T06:16:05;16.00;99.90
51567;DHT22;37657;53.182;5.638;2022-09-09T06:18:32;16.00;99.90
51567;DHT22;37657;53.182;5.638;2022-09-09T06:20:59;16.00;99.90
51567;DHT22;37657;53.182;5.638;2022-09-09T06:23:30;16.10;99.90
51567;DHT22;37657;53.182;5.638;2022-09-09T06:26:05;16.10;99.90
51567;DHT22;37657;53.182;5.638;2022-09-09T06:28:32;16.00;99.90
51567;DHT22;37657;53.182;5.638;2022-09-09T06:31:01;16.10;99.90
51567;DHT22;37657;53.182;5.638;2022-09-09T06:33:31;16.10;99.90
51567;DHT22;37657;53.182;5.638;2022-09-09T06:35:57;16.10;99.90
51567;DHT22;37657;53.182;5.638;2022-09-09T06:38:23;16.20;99.90
51567;DHT22;37657;53.182;5.638;2022-09-09T06:40:56;16.10;99.90
51567;DHT22;37657;53.182;5.638;2022-09-09T06:43:23;16.20;99.90
51567;DHT22;37657;53.182;5.638;2022-09-09T06:46:00;16.30;99.90
51567;DHT22;37657;53.182;5.638;2022-09-09T06:48:27;16.30;99.90
51567;DHT22;37657;53.182;5.638;2022-09-09T06:51:08;16.30;99.90
51567;DHT22;37657;53.182;5.638;2022-09-09T06:53:35;16.20;99.90
51567;DHT22;37657;53.182;5.638;2022-09-09T06:58:36;16.30;99.90
51567;DHT22;37657;53.182;5.638;2022-09-09T07:01:04;16.40;99.90
51567;DHT22;37657;53.182;5.638;2022-09-09T07:03:29;16.40;99.90
51567;DHT22;37657;53.182;5.638;2022-09-09T07:05:56;16.40;99.90
51567;DHT22;37657;53.182;5.638;2022-09-09T07:08:21;16.30;99.90
51567;DHT22;37657;53.182;5.638;2022-09-09T07:10:47;16.40;99.90
51567;DHT22;37657;53.182;5.638;2022-09-09T07:13:13;16.40;99.90
51567;DHT22;37657;53.182;5.638;2022-09-09T07:15:41;16.50;99.90
51567;DHT22;37657;53.182;5.638;2022-09-09T07:18:06;16.50;99.90
51567;DHT22;37657;53.182;5.638;2022-09-09T07:20:32;16.50;99.90
51567;DHT22;37657;53.182;5.638;2022-09-09T07:22:57;16.50;99.90
51567;DHT22;37657;53.182;5.638;2022-09-09T07:25:24;16.50;99.90
51567;DHT22;37657;53.182;5.638;2022-09-09T07:27:53;16.50;99.90
51567;DHT22;37657;53.182;5.638;2022-09-09T07:30:18;16.50;99.90
51567;DHT22;37657;53.182;5.638;2022-09-09T07:32:44;16.60;99.90
51567;DHT22;37657;53.182;5.638;2022-09-09T07:35:10;16.60;99.90
51567;DHT22;37657;53.182;5.638;2022-09-09T07:37:38;16.80;99.90
51567;DHT22;37657;53.182;5.638;2022-09-09T07:40:05;16.70;99.90
51567;DHT22;37657;53.182;5.638;2022-09-09T07:42:31;16.90;99.90
51567;DHT22;37657;53.182;5.638;2022-09-09T07:44:56;16.90;99.90
51567;DHT22;37657;53.182;5.638;2022-09-09T07:47:22;17.00;99.90
51567;DHT22;37657;53.182;5.638;2022-09-09T07:49:50;17.00;99.90
51567;DHT22;37657;53.182;5.638;2022-09-09T07:52:16;17.00;99.90
51567;DHT22;37657;53.182;5.638;2022-09-09T07:54:42;17.20;99.90
51567;DHT22;37657;53.182;5.638;2022-09-09T07:57:07;17.30;99.90
51567;DHT22;37657;53.182;5.638;2022-09-09T07:59:33;17.40;99.90
51567;DHT22;37657;53.182;5.638;2022-09-09T08:01:59;17.50;99.90
51567;DHT22;37657;53.182;5.638;2022-09-09T08:04:25;17.60;99.90
51567;DHT22;37657;53.182;5.638;2022-09-09T08:06:56;17.60;99.90
51567;DHT22;37657;53.182;5.638;2022-09-09T08:09:23;17.80;99.90
51567;DHT22;37657;53.182;5.638;2022-09-09T08:11:52;17.80;99.90
51567;DHT22;37657;53.182;5.638;2022-09-09T08:14:18;17.90;99.90
51567;DHT22;37657;53.182;5.638;2022-09-09T08:16:46;17.90;99.90
51567;DHT22;37657;53.182;5.638;2022-09-09T08:19:12;18.00;99.90
51567;DHT22;37657;53.182;5.638;2022-09-09T08:21:39;18.00;99.90
51567;DHT22;37657;53.182;5.638;2022-09-09T08:24:06;18.00;99.90
51567;DHT22;37657;53.182;5.638;2022-09-09T08:26:35;18.10;99.90
51567;DHT22;37657;53.182;5.638;2022-09-09T08:29:02;18.10;99.90
51567;DHT22;37657;53.182;5.638;2022-09-09T08:31:36;18.20;99.90
51567;DHT22;37657;53.182;5.638;2022-09-09T08:34:04;18.30;99.90
51567;DHT22;37657;53.182;5.638;2022-09-09T08:36:32;18.40;99.90
51567;DHT22;37657;53.182;5.638;2022-09-09T08:39:02;18.50;99.90
51567;DHT22;37657;53.182;5.638;2022-09-09T08:47:54;18.70;99.90
51567;DHT22;37657;53.182;5.638;2022-09-09T08:53:14;18.50;99.90
51567;DHT22;37657;53.182;5.638;2022-09-09T08:55:54;18.40;99.90
51567;DHT22;37657;53.182;5.638;2022-09-09T08:58:31;18.30;99.90
51567;DHT22;37657;53.182;5.638;2022-09-09T09:09:08;18.10;99.90
51567;DHT22;37657;53.182;5.638;2022-09-09T09:11:43;18.00;99.90
51567;DHT22;37657;53.182;5.638;2022-09-09T09:14:17;17.90;99.90
51567;DHT22;37657;53.182;5.638;2022-09-09T09:17:05;17.90;99.90
51567;DHT22;37657;53.182;5.638;2022-09-09T09:19:35;17.90;99.90
51567;DHT22;37657;53.182;5.638;2022-09-09T09:27:34;18.30;99.90
51567;DHT22;37657;53.182;5.638;2022-09-09T09:30:12;18.40;99.90
51567;DHT22;37657;53.182;5.638;2022-09-09T09:32:41;18.50;99.90
51567;DHT22;37657;53.182;5.638;2022-09-09T09:35:13;18.60;99.90
51567;DHT22;37657;53.182;5.638;2022-09-09T09:37:40;18.50;99.90
51567;DHT22;37657;53.182;5.638;2022-09-09T09:40:17;18.50;99.90
51567;DHT22;37657;53.182;5.638;2022-09-09T09:42:52;18.50;99.90
51567;DHT22;37657;53.182;5.638;2022-09-09T09:45:41;18.60;99.90
51567;DHT22;37657;53.182;5.638;2022-09-09T09:48:12;18.70;99.90
51567;DHT22;37657;53.182;5.638;2022-09-09T09:50:57;18.70;99.90
51567;DHT22;37657;53.182;5.638;2022-09-09T09:53:28;18.70;99.90
51567;DHT22;37657;53.182;5.638;2022-09-09T09:56:01;18.70;99.90
51567;DHT22;37657;53.182;5.638;2022-09-09T09:58:30;18.60;99.90
51567;DHT22;37657;53.182;5.638;2022-09-09T10:00:59;18.70;99.90
51567;DHT22;37657;53.182;5.638;2022-09-09T10:03:33;18.70;99.90
51567;DHT22;37657;53.182;5.638;2022-09-09T10:06:04;18.90;99.90
51567;DHT22;37657;53.182;5.638;2022-09-09T10:08:34;19.00;99.90
51567;DHT22;37657;53.182;5.638;2022-09-09T10:13:46;19.40;99.90
51567;DHT22;37657;53.182;5.638;2022-09-09T10:19:10;19.40;99.90
51567;DHT22;37657;53.182;5.638;2022-09-09T10:27:10;19.50;99.90
51567;DHT22;37657;53.182;5.638;2022-09-09T10:32:46;19.50;99.90
51567;DHT22;37657;53.182;5.638;2022-09-09T10:35:44;19.60;99.90
51567;DHT22;37657;53.182;5.638;2022-09-09T10:46:21;19.70;99.90
51567;DHT22;37657;53.182;5.638;2022-09-09T10:52:07;19.90;99.90
51567;DHT22;37657;53.182;5.638;2022-09-09T10:56:53;20.00;99.90
51567;DHT22;37657;53.182;5.638;2022-09-09T10:59:36;19.90;99.90
51567;DHT22;37657;53.182;5.638;2022-09-09T11:04:43;19.80;99.90
51567;DHT22;37657;53.182;5.638;2022-09-09T11:07:13;19.60;99.90
51567;DHT22;37657;53.182;5.638;2022-09-09T11:09:49;19.50;99.90
51567;DHT22;37657;53.182;5.638;2022-09-09T11:12:19;19.50;99.90
51567;DHT22;37657;53.182;5.638;2022-09-09T11:14:53;19.40;99.90
51567;DHT22;37657;53.182;5.638;2022-09-09T11:17:26;19.20;99.90
51567;DHT22;37657;53.182;5.638;2022-09-09T11:19:52;19.20;99.90
51567;DHT22;37657;53.182;5.638;2022-09-09T11:22:32;19.00;99.90
51567;DHT22;37657;53.182;5.638;2022-09-09T11:25:25;18.90;99.90
51567;DHT22;37657;53.182;5.638;2022-09-09T11:31:15;18.70;99.90
51567;DHT22;37657;53.182;5.638;2022-09-09T11:36:43;18.90;99.90
51567;DHT22;37657;53.182;5.638;2022-09-09T11:39:38;18.90;99.90
51567;DHT22;37657;53.182;5.638;2022-09-09T11:44:38;19.20;99.90
51567;DHT22;37657;53.182;5.638;2022-09-09T11:47:26;19.20;99.90
51567;DHT22;37657;53.182;5.638;2022-09-09T11:50:07;19.30;99.90
51567;DHT22;37657;53.182;5.638;2022-09-09T11:52:40;19.30;99.90
51567;DHT22;37657;53.182;5.638;2022-09-09T11:55:33;19.30;99.90
51567;DHT22;37657;53.182;5.638;2022-09-09T11:58:00;19.30;99.90
51567;DHT22;37657;53.182;5.638;2022-09-09T12:00:43;19.30;99.90
51567;DHT22;37657;53.182;5.638;2022-09-09T12:05:56;19.30;99.90
51567;DHT22;37657;53.182;5.638;2022-09-09T12:08:27;19.30;99.90
51567;DHT22;37657;53.182;5.638;2022-09-09T12:10:56;19.20;99.90
51567;DHT22;37657;53.182;5.638;2022-09-09T12:13:24;19.20;99.90
51567;DHT22;37657;53.182;5.638;2022-09-09T12:15:58;19.10;99.90
51567;DHT22;37657;53.182;5.638;2022-09-09T12:18:37;19.00;99.90
51567;DHT22;37657;53.182;5.638;2022-09-09T12:23:48;18.80;99.90
51567;DHT22;37657;53.182;5.638;2022-09-09T12:26:25;18.70;99.90
51567;DHT22;37657;53.182;5.638;2022-09-09T12:31:34;18.90;99.90
51567;DHT22;37657;53.182;5.638;2022-09-09T12:36:46;19.00;99.90
51567;DHT22;37657;53.182;5.638;2022-09-09T12:39:29;19.30;99.90
51567;DHT22;37657;53.182;5.638;2022-09-09T12:41:56;19.10;99.90
51567;DHT22;37657;53.182;5.638;2022-09-09T12:44:24;19.10;99.90
51567;DHT22;37657;53.182;5.638;2022-09-09T12:46:51;19.10;99.90
51567;DHT22;37657;53.182;5.638;2022-09-09T12:49:34;19.20;99.90
51567;DHT22;37657;53.182;5.638;2022-09-09T12:52:08;19.30;99.90
51567;DHT22;37657;53.182;5.638;2022-09-09T12:54:46;19.30;99.90
51567;DHT22;37657;53.182;5.638;2022-09-09T12:57:13;19.40;99.90
51567;DHT22;37657;53.182;5.638;2022-09-09T12:59:41;19.50;99.90
51567;DHT22;37657;53.182;5.638;2022-09-09T13:02:19;19.60;99.90
51567;DHT22;37657;53.182;5.638;2022-09-09T13:04:45;19.70;99.90
51567;DHT22;37657;53.182;5.638;2022-09-09T13:07:12;19.70;99.90
51567;DHT22;37657;53.182;5.638;2022-09-09T13:09:39;19.70;99.90
51567;DHT22;37657;53.182;5.638;2022-09-09T13:12:06;19.70;99.90
51567;DHT22;37657;53.182;5.638;2022-09-09T13:14:36;19.70;99.90
51567;DHT22;37657;53.182;5.638;2022-09-09T13:17:06;19.80;99.90
51567;DHT22;37657;53.182;5.638;2022-09-09T13:19:37;19.70;99.90
51567;DHT22;37657;53.182;5.638;2022-09-09T13:22:19;19.80;99.90
51567;DHT22;37657;53.182;5.638;2022-09-09T13:24:45;19.70;99.90
51567;DHT22;37657;53.182;5.638;2022-09-09T13:27:28;19.60;99.90
51567;DHT22;37657;53.182;5.638;2022-09-09T13:29:55;19.40;99.90
51567;DHT22;37657;53.182;5.638;2022-09-09T13:32:23;19.30;99.90
51567;DHT22;37657;53.182;5.638;2022-09-09T13:35:00;19.20;99.90
51567;DHT22;37657;53.182;5.638;2022-09-09T13:37:39;19.00;99.90
51567;DHT22;37657;53.182;5.638;2022-09-09T13:40:17;19.10;99.90
51567;DHT22;37657;53.182;5.638;2022-09-09T13:42:44;19.20;99.90
51567;DHT22;37657;53.182;5.638;2022-09-09T13:45:21;19.40;99.90
51567;DHT22;37657;53.182;5.638;2022-09-09T13:47:47;19.50;99.90
51567;DHT22;37657;53.182;5.638;2022-09-09T13:50:28;19.70;99.90
51567;DHT22;37657;53.182;5.638;2022-09-09T13:52:56;19.80;99.90
51567;DHT22;37657;53.182;5.638;2022-09-09T13:55:25;19.90;99.90
51567;DHT22;37657;53.182;5.638;2022-09-09T13:57:55;20.00;99.90
51567;DHT22;37657;53.182;5.638;2022-09-09T14:00:22;20.10;99.90
51567;DHT22;37657;53.182;5.638;2022-09-09T14:02:49;20.10;99.90
51567;DHT22;37657;53.182;5.638;2022-09-09T14:05:15;20.20;99.90
51567;DHT22;37657;53.182;5.638;2022-09-09T14:07:42;20.20;99.90
51567;DHT22;37657;53.182;5.638;2022-09-09T14:10:08;20.20;99.90
51567;DHT22;37657;53.182;5.638;2022-09-09T14:12:34;20.10;99.90
51567;DHT22;37657;53.182;5.638;2022-09-09T14:15:02;20.10;99.90
51567;DHT22;37657;53.182;5.638;2022-09-09T14:17:28;20.10;99.90
51567;DHT22;37657;53.182;5.638;2022-09-09T14:19:56;20.10;99.90
51567;DHT22;37657;53.182;5.638;2022-09-09T14:22:23;20.20;99.90
51567;DHT22;37657;53.182;5.638;2022-09-09T14:24:49;20.20;99.90
51567;DHT22;37657;53.182;5.638;2022-09-09T14:27:15;20.10;99.90
51567;DHT22;37657;53.182;5.638;2022-09-09T14:29:41;20.00;99.90
51567;DHT22;37657;53.182;5.638;2022-09-09T14:32:08;19.90;99.90
51567;DHT22;37657;53.182;5.638;2022-09-09T14:34:34;19.80;99.90
51567;DHT22;37657;53.182;5.638;2022-09-09T14:37:00;19.80;99.90
51567;DHT22;37657;53.182;5.638;2022-09-09T14:39:26;19.80;99.90
51567;DHT22;37657;53.182;5.638;2022-09-09T14:41:52;19.80;99.90
51567;DHT22;37657;53.182;5.638;2022-09-09T14:44:17;19.70;99.90
51567;DHT22;37657;53.182;5.638;2022-09-09T14:46:43;19.70;99.90
51567;DHT22;37657;53.182;5.638;2022-09-09T14:49:09;19.50;99.90
51567;DHT22;37657;53.182;5.638;2022-09-09T14:51:35;19.20;99.90
51567;DHT22;37657;53.182;5.638;2022-09-09T14:54:01;19.00;99.90
51567;DHT22;37657;53.182;5.638;2022-09-09T14:56:30;18.90;99.90
51567;DHT22;37657;53.182;5.638;2022-09-09T14:58:57;18.70;99.90
51567;DHT22;37657;53.182;5.638;2022-09-09T15:01:24;18.60;99.90
51567;DHT22;37657;53.182;5.638;2022-09-09T15:03:57;18.60;99.90
51567;DHT22;37657;53.182;5.638;2022-09-09T15:06:24;18.60;99.90
51567;DHT22;37657;53.182;5.638;2022-09-09T15:08:51;18.70;99.90
51567;DHT22;37657;53.182;5.638;2022-09-09T15:11:18;18.70;99.90
51567;DHT22;37657;53.182;5.638;2022-09-09T15:13:44;18.80;99.90
51567;DHT22;37657;53.182;5.638;2022-09-09T15:16:17;18.90;99.90
51567;DHT22;37657;53.182;5.638;2022-09-09T15:18:45;19.00;99.90
51567;DHT22;37657;53.182;5.638;2022-09-09T15:21:17;19.10;99.90
51567;DHT22;37657;53.182;5.638;2022-09-09T15:23:44;19.30;99.90
51567;DHT22;37657;53.182;5.638;2022-09-09T15:26:11;19.50;99.90
51567;DHT22;37657;53.182;5.638;2022-09-09T15:28:40;19.50;99.90
51567;DHT22;37657;53.182;5.638;2022-09-09T15:31:15;19.60;99.90
51567;DHT22;37657;53.182;5.638;2022-09-09T15:33:56;19.60;99.90
51567;DHT22;37657;53.182;5.638;2022-09-09T15:36:34;19.60;99.90
51567;DHT22;37657;53.182;5.638;2022-09-09T15:39:00;19.60;99.90
51567;DHT22;37657;53.182;5.638;2022-09-09T15:41:26;19.70;99.90
51567;DHT22;37657;53.182;5.638;2022-09-09T15:43:54;19.70;99.90
51567;DHT22;37657;53.182;5.638;2022-09-09T15:46:39;19.80;99.90
51567;DHT22;37657;53.182;5.638;2022-09-09T15:49:18;19.80;99.90
51567;DHT22;37657;53.182;5.638;2022-09-09T15:51:46;19.80;99.90
51567;DHT22;37657;53.182;5.638;2022-09-09T15:54:16;19.80;99.90
51567;DHT22;37657;53.182;5.638;2022-09-09T15:56:43;19.80;99.90
51567;DHT22;37657;53.182;5.638;2022-09-09T15:59:09;19.80;99.90
51567;DHT22;37657;53.182;5.638;2022-09-09T16:01:35;19.70;99.90
51567;DHT22;37657;53.182;5.638;2022-09-09T16:04:01;19.70;99.90
51567;DHT22;37657;53.182;5.638;2022-09-09T16:06:28;19.60;99.90
51567;DHT22;37657;53.182;5.638;2022-09-09T16:08:55;19.50;99.90
51567;DHT22;37657;53.182;5.638;2022-09-09T16:11:27;19.50;99.90
51567;DHT22;37657;53.182;5.638;2022-09-09T16:13:54;19.40;99.90
51567;DHT22;37657;53.182;5.638;2022-09-09T16:16:22;19.30;99.90
51567;DHT22;37657;53.182;5.638;2022-09-09T16:18:53;19.10;99.90
51567;DHT22;37657;53.182;5.638;2022-09-09T16:21:23;18.80;99.90
51567;DHT22;37657;53.182;5.638;2022-09-09T16:23:51;18.50;99.90
51567;DHT22;37657;53.182;5.638;2022-09-09T16:26:19;18.20;99.90
51567;DHT22;37657;53.182;5.638;2022-09-09T16:28:45;18.10;99.90
51567;DHT22;37657;53.182;5.638;2022-09-09T16:31:18;18.00;99.90
51567;DHT22;37657;53.182;5.638;2022-09-09T16:33:44;18.00;99.90
51567;DHT22;37657;53.182;5.638;2022-09-09T16:36:19;18.00;99.90
51567;DHT22;37657;53.182;5.638;2022-09-09T16:38:45;18.00;99.90
51567;DHT22;37657;53.182;5.638;2022-09-09T16:41:12;18.10;99.90
51567;DHT22;37657;53.182;5.638;2022-09-09T16:43:38;18.00;99.90
51567;DHT22;37657;53.182;5.638;2022-09-09T16:46:12;18.00;99.90
51567;DHT22;37657;53.182;5.638;2022-09-09T16:48:38;18.10;99.90
51567;DHT22;37657;53.182;5.638;2022-09-09T16:51:11;18.20;99.90
51567;DHT22;37657;53.182;5.638;2022-09-09T16:53:37;18.20;99.90
51567;DHT22;37657;53.182;5.638;2022-09-09T16:56:14;18.40;99.90
51567;DHT22;37657;53.182;5.638;2022-09-09T16:58:41;18.40;99.90
51567;DHT22;37657;53.182;5.638;2022-09-09T17:01:08;18.40;99.90
51567;DHT22;37657;53.182;5.638;2022-09-09T17:03:35;18.50;99.90
51567;DHT22;37657;53.182;5.638;2022-09-09T17:06:02;18.50;99.90
51567;DHT22;37657;53.182;5.638;2022-09-09T17:08:30;18.60;99.90
51567;DHT22;37657;53.182;5.638;2022-09-09T17:10:57;18.70;99.90
51567;DHT22;37657;53.182;5.638;2022-09-09T17:13:24;18.70;99.90
51567;DHT22;37657;53.182;5.638;2022-09-09T17:15:50;18.60;99.90
51567;DHT22;37657;53.182;5.638;2022-09-09T17:18:16;18.60;99.90
51567;DHT22;37657;53.182;5.638;2022-09-09T17:20:42;18.60;99.90
51567;DHT22;37657;53.182;5.638;2022-09-09T17:23:10;18.60;99.90
51567;DHT22;37657;53.182;5.638;2022-09-09T17:25:36;18.50;99.90
51567;DHT22;37657;53.182;5.638;2022-09-09T17:28:03;18.50;99.90
51567;DHT22;37657;53.182;5.638;2022-09-09T17:30:33;18.40;99.90
51567;DHT22;37657;53.182;5.638;2022-09-09T17:32:59;18.40;99.90
51567;DHT22;37657;53.182;5.638;2022-09-09T17:35:25;18.40;99.90
51567;DHT22;37657;53.182;5.638;2022-09-09T17:37:53;18.40;99.90
51567;DHT22;37657;53.182;5.638;2022-09-09T17:40:19;18.40;99.90